KUKT/UKT METAR and TAF weather

Enter ICAO airport designator
Station Type Date Time Source
KUKT METAR 2019/04/25 09:55 UTC NOAA

KUKT 250955Z AUTO 00000KT 10SM CLR 10/04 A2995 RMK A01


Station Type Date Time Source
KUKT Decoded METAR 2019/04/25 09:55 UTC NOAA

Quakertown, Quakertown Airport, PA, United States (KUKT) 40-26-06N 075-22-54W
Apr 25, 2019 - 05:55 AM EDT / 2019.04.25 0955 UTC
Wind: Calm:0
Visibility: 10 mile(s):0
Sky conditions: clear
Temperature: 50 F (10 C)
Dew Point: 39 F (4 C)
Relative Humidity: 66%
Pressure (altimeter): 29.95 in. Hg (1014 hPa)
ob: KUKT 250955Z AUTO 00000KT 10SM CLR 10/04 A2995 RMK A01
cycle: 10

Station Type Date Time Source
KUKT TAF UTC NOAA

Error!

Example: see airport list